Time;durP1;ratioP1;P1;durP2;ratioP2;P2;SDS_P1;SDS_P2;PMS_P1;PMS_P2;Temp;Humidity;BMP_temperature;BMP_pressure;BME280_temperature;BME280_humidity;BME280_pressure;Samples;Min_cycle;Max_cycle;Signal;HPM_P1;HPM_P2
2022/01/04 00:01:37;;;;;;;5.53;3.30;;;9.60;55.00;;;;;;4990702;28;20185;-79
2022/01/04 00:04:07;;;;;;;5.75;3.25;;;9.70;55.20;;;;;;4987000;28;20201;-78
2022/01/04 00:06:37;;;;;;;5.82;3.90;;;9.70;55.30;;;;;;4973517;28;20224;-78
2022/01/04 00:09:06;;;;;;;6.00;3.40;;;9.70;55.50;;;;;;4972973;28;20562;-78
2022/01/04 00:11:44;;;;;;;5.05;2.78;;;9.70;55.40;;;;;;4978705;28;20229;-78
2022/01/04 00:14:12;;;;;;;5.53;3.35;;;9.70;55.50;;;;;;4980952;28;20674;-79
2022/01/04 00:16:40;;;;;;;5.45;2.53;;;9.60;56.30;;;;;;4972888;28;20225;-79
2022/01/04 00:19:08;;;;;;;5.65;3.00;;;9.60;56.60;;;;;;4976289;28;20299;-79
2022/01/04 00:21:38;;;;;;;5.15;3.42;;;9.50;56.90;;;;;;4985356;28;20584;-78
2022/01/04 00:24:06;;;;;;;6.18;3.10;;;9.50;57.10;;;;;;4976080;28;20249;-79
2022/01/04 00:26:34;;;;;;;5.15;3.00;;;9.50;57.20;;;;;;4972933;28;20205;-79
2022/01/04 00:29:02;;;;;;;4.75;3.05;;;9.50;57.20;;;;;;4980508;28;20671;-79
2022/01/04 00:31:31;;;;;;;4.95;3.25;;;9.50;56.90;;;;;;4991818;28;20259;-79
2022/01/04 00:33:58;;;;;;;3.97;2.75;;;9.40;56.60;;;;;;4991937;28;20185;-79
2022/01/04 00:36:26;;;;;;;3.40;2.35;;;9.50;56.40;;;;;;4992158;28;20239;-78
2022/01/04 00:38:54;;;;;;;5.72;2.92;;;9.40;56.40;;;;;;4991667;28;20228;-79
2022/01/04 00:41:21;;;;;;;5.63;2.65;;;9.40;56.40;;;;;;4992890;28;20204;-79
2022/01/04 00:43:53;;;;;;;4.20;2.45;;;9.40;56.20;;;;;;4992712;28;20720;-79
2022/01/04 00:46:22;;;;;;;3.80;2.70;;;9.40;56.20;;;;;;4992547;28;20192;-79
2022/01/04 00:51:34;;;;;;;4.90;2.50;;;9.40;55.90;;;;;;4992874;28;20586;-78
2022/01/04 00:54:02;;;;;;;10.70;3.22;;;9.40;55.20;;;;;;4992969;28;20232;-79
2022/01/04 00:56:29;;;;;;;4.65;2.80;;;9.40;55.50;;;;;;4992941;28;20551;-79
2022/01/04 00:58:57;;;;;;;3.88;3.17;;;9.40;55.50;;;;;;4994495;28;20258;-79
2022/01/04 01:01:28;;;;;;;5.55;3.33;;;9.40;55.70;;;;;;4996239;28;20208;-79
2022/01/04 01:03:56;;;;;;;5.25;3.30;;;9.40;55.40;;;;;;4996138;28;20667;-79
2022/01/04 01:06:24;;;;;;;6.38;3.20;;;9.30;55.60;;;;;;4996353;28;20548;-79
2022/01/04 01:08:51;;;;;;;4.85;2.58;;;9.30;55.70;;;;;;4996326;28;20710;-79
2022/01/04 01:11:21;;;;;;;7.53;2.67;;;9.40;55.80;;;;;;4996343;28;20287;-79
2022/01/04 01:13:52;;;;;;;7.45;3.78;;;9.30;55.20;;;;;;4995960;28;20201;-75
2022/01/04 01:16:20;;;;;;;3.33;2.13;;;9.30;55.50;;;;;;4995977;28;20197;-78
2022/01/04 01:18:47;;;;;;;3.55;2.38;;;9.30;55.60;;;;;;4995531;28;20232;-79
2022/01/04 01:21:14;;;;;;;6.32;2.88;;;9.30;55.10;;;;;;4996080;28;20259;-78
2022/01/04 01:23:42;;;;;;;4.70;2.80;;;9.20;54.50;;;;;;4996104;28;20235;-78
2022/01/04 01:26:10;;;;;;;4.47;2.20;;;9.30;54.80;;;;;;4996109;28;20200;-78
2022/01/04 01:28:41;;;;;;;3.92;2.10;;;9.20;54.70;;;;;;4996063;28;20217;-78
2022/01/04 01:31:09;;;;;;;3.85;2.30;;;9.30;54.70;;;;;;4995987;28;20195;-79
2022/01/04 01:33:37;;;;;;;3.20;1.77;;;9.30;54.70;;;;;;4995807;28;20193;-77
2022/01/04 01:36:04;;;;;;;3.45;2.47;;;9.40;55.10;;;;;;4996094;28;20192;-79
2022/01/04 01:38:31;;;;;;;3.50;2.13;;;9.40;55.30;;;;;;4995883;28;20244;-79
2022/01/04 01:40:59;;;;;;;3.13;1.80;;;9.40;55.00;;;;;;4995585;28;20279;-79
2022/01/04 01:43:29;;;;;;;3.72;1.90;;;9.40;55.00;;;;;;4995374;28;20197;-79
2022/01/04 01:45:57;;;;;;;5.00;2.08;;;9.40;54.80;;;;;;4995620;28;20189;-79
2022/01/04 01:48:29;;;;;;;2.83;1.75;;;9.50;54.80;;;;;;4995424;28;20231;-79
2022/01/04 01:50:56;;;;;;;3.35;2.28;;;9.40;54.60;;;;;;4995528;28;20225;-79
2022/01/04 01:53:24;;;;;;;3.25;1.90;;;9.30;54.50;;;;;;4995619;28;20205;-79
2022/01/04 01:55:55;;;;;;;15.10;10.05;;;9.40;54.70;;;;;;4995492;28;20243;-78
2022/01/04 01:58:22;;;;;;;4.05;2.60;;;9.30;54.60;;;;;;4995428;28;20288;-78
2022/01/04 02:00:50;;;;;;;4.53;2.35;;;9.20;54.60;;;;;;4995279;28;20204;-79
2022/01/04 02:03:18;;;;;;;3.70;2.30;;;9.30;54.90;;;;;;4995287;28;20189;-78
2022/01/04 02:05:47;;;;;;;3.08;1.92;;;9.30;55.00;;;;;;4994977;28;20236;-79
2022/01/04 02:08:16;;;;;;;6.35;2.00;;;9.40;54.80;;;;;;4995235;28;20267;-79
2022/01/04 02:10:44;;;;;;;4.78;2.10;;;9.40;54.80;;;;;;4994101;28;20201;-79
2022/01/04 02:13:12;;;;;;;3.42;2.33;;;9.50;54.90;;;;;;4995231;28;20279;-79
2022/01/04 02:15:39;;;;;;;4.55;1.80;;;9.60;55.40;;;;;;4995208;28;20193;-79
2022/01/04 02:18:08;;;;;;;4.30;1.98;;;9.60;55.40;;;;;;4994571;28;20291;-78
2022/01/04 02:20:37;;;;;;;3.58;2.13;;;9.60;55.00;;;;;;4995123;28;20283;-78
2022/01/04 02:23:04;;;;;;;3.88;2.08;;;9.50;55.40;;;;;;4994794;28;20243;-79
2022/01/04 02:25:31;;;;;;;4.32;2.95;;;9.50;55.70;;;;;;4994967;28;20248;-79
2022/01/04 02:27:58;;;;;;;6.32;2.55;;;9.50;56.10;;;;;;4994780;28;20260;-79
2022/01/04 02:30:25;;;;;;;5.93;2.33;;;9.50;56.30;;;;;;4994721;28;20255;-79
2022/01/04 02:32:53;;;;;;;4.32;2.15;;;9.50;56.70;;;;;;4994498;28;20360;-79
2022/01/04 02:35:24;;;;;;;3.72;2.50;;;9.50;56.10;;;;;;4994857;28;20192;-79
2022/01/04 02:37:55;;;;;;;3.13;2.00;;;9.60;56.30;;;;;;4994486;28;20608;-79
2022/01/04 02:40:23;;;;;;;2.40;1.20;;;9.60;57.20;;;;;;4994438;28;20193;-79
2022/01/04 02:42:51;;;;;;;2.90;1.58;;;9.60;57.50;;;;;;4994729;28;20228;-79
2022/01/04 02:45:18;;;;;;;3.60;2.17;;;9.60;57.40;;;;;;4994465;28;20201;-79
2022/01/04 02:47:46;;;;;;;3.45;1.90;;;9.50;58.50;;;;;;4994350;28;20224;-79
2022/01/04 02:50:14;;;;;;;3.30;1.77;;;9.50;59.90;;;;;;4994308;28;20251;-77
2022/01/04 02:52:41;;;;;;;2.72;1.55;;;9.40;59.40;;;;;;4994364;28;20298;-78
2022/01/04 02:55:12;;;;;;;3.90;2.05;;;9.30;59.30;;;;;;4994405;28;20197;-79
2022/01/04 02:57:40;;;;;;;2.30;1.30;;;9.20;59.30;;;;;;4994305;28;20640;-79
2022/01/04 03:00:13;;;;;;;3.85;1.70;;;9.20;58.80;;;;;;4994389;28;20247;-79
2022/01/04 03:02:41;;;;;;;3.08;1.52;;;9.20;58.30;;;;;;4993975;28;20251;-78
2022/01/04 03:05:11;;;;;;;3.78;1.48;;;9.20;57.80;;;;;;4993970;28;20624;-79
2022/01/04 03:07:38;;;;;;;3.25;1.73;;;9.10;57.70;;;;;;4994100;28;20267;-78
2022/01/04 03:10:09;;;;;;;3.13;1.67;;;9.10;57.80;;;;;;4994011;28;20236;-78
2022/01/04 03:12:39;;;;;;;10.40;3.65;;;9.10;58.00;;;;;;4994145;28;20575;-78
2022/01/04 03:15:07;;;;;;;2.22;1.52;;;9.10;57.90;;;;;;4993819;28;20207;-79
2022/01/04 03:17:34;;;;;;;2.92;1.50;;;9.10;57.80;;;;;;4993574;28;20561;-76
2022/01/04 03:20:01;;;;;;;7.05;1.50;;;9.20;57.80;;;;;;4994069;28;20232;-79
2022/01/04 03:22:33;;;;;;;4.13;2.08;;;9.20;57.90;;;;;;4993810;28;20196;-78
2022/01/04 03:25:00;;;;;;;2.72;1.80;;;9.20;58.10;;;;;;4993837;28;20200;-79
2022/01/04 03:27:29;;;;;;;3.33;1.80;;;9.30;58.40;;;;;;4993866;28;20664;-79
2022/01/04 03:29:56;;;;;;;5.07;2.63;;;9.30;58.60;;;;;;4993468;28;20553;-79
2022/01/04 03:32:23;;;;;;;4.97;1.90;;;9.40;58.60;;;;;;4993796;28;20200;-79
2022/01/04 03:34:50;;;;;;;3.88;2.20;;;9.40;58.60;;;;;;4993597;28;20302;-79
2022/01/04 03:37:17;;;;;;;4.00;2.10;;;9.40;58.90;;;;;;4993578;28;20263;-79
2022/01/04 03:39:50;;;;;;;3.38;1.95;;;9.40;58.90;;;;;;4993596;28;20225;-78
2022/01/04 03:42:26;;;;;;;2.75;1.70;;;9.40;59.00;;;;;;4993130;28;20236;-79
2022/01/04 03:44:58;;;;;;;2.97;2.00;;;9.40;59.20;;;;;;4993533;28;20251;-79
2022/01/04 03:47:25;;;;;;;3.20;2.10;;;9.30;59.30;;;;;;4993427;28;20232;-79
2022/01/04 03:49:52;;;;;;;3.90;1.67;;;9.40;59.30;;;;;;4993480;28;20629;-79
2022/01/04 03:52:19;;;;;;;2.97;1.70;;;9.30;59.40;;;;;;4993369;28;20228;-79
2022/01/04 03:54:46;;;;;;;3.15;1.80;;;9.30;59.50;;;;;;4993216;28;20274;-79
2022/01/04 03:57:13;;;;;;;5.47;2.10;;;9.30;59.60;;;;;;4993366;28;20192;-79
2022/01/04 03:59:40;;;;;;;2.90;1.50;;;9.30;59.60;;;;;;4993131;28;20228;-79
2022/01/04 04:02:08;;;;;;;4.45;1.95;;;9.30;59.70;;;;;;4993568;28;20197;-78
2022/01/04 04:04:36;;;;;;;4.45;2.30;;;9.30;59.30;;;;;;4993334;28;20197;-79
2022/01/04 04:07:04;;;;;;;2.90;1.88;;;9.30;58.90;;;;;;4993489;28;20564;-79
2022/01/04 04:09:34;;;;;;;3.30;1.63;;;9.30;58.40;;;;;;4993361;28;20275;-79
2022/01/04 04:12:01;;;;;;;3.10;1.40;;;9.30;58.30;;;;;;4993648;28;20192;-79
2022/01/04 04:14:34;;;;;;;6.40;1.50;;;9.30;58.00;;;;;;4993581;28;20193;-79
2022/01/04 04:17:01;;;;;;;3.15;1.50;;;9.20;57.20;;;;;;4993432;28;20663;-79
2022/01/04 04:19:29;;;;;;;3.58;1.77;;;9.20;56.90;;;;;;4993097;28;20232;-79
2022/01/04 04:21:57;;;;;;;3.80;1.80;;;9.30;57.00;;;;;;4993166;28;20275;-79
2022/01/04 04:24:24;;;;;;;5.45;1.77;;;9.20;56.70;;;;;;4993333;28;20200;-79
2022/01/04 04:26:53;;;;;;;2.92;1.65;;;9.30;57.10;;;;;;4993400;28;20196;-79
2022/01/04 04:29:20;;;;;;;3.05;1.65;;;9.30;57.40;;;;;;4993231;28;20754;-74
2022/01/04 04:31:47;;;;;;;2.85;1.55;;;9.30;57.20;;;;;;4993142;28;20193;-79
2022/01/04 04:34:14;;;;;;;2.25;1.27;;;9.30;56.90;;;;;;4995689;28;20251;-79
2022/01/04 04:36:48;;;;;;;2.40;1.40;;;9.30;56.30;;;;;;4996920;28;20192;-79
2022/01/04 04:39:15;;;;;;;3.50;1.75;;;9.30;56.10;;;;;;4996829;28;20192;-79
2022/01/04 04:41:42;;;;;;;2.67;1.30;;;9.30;55.60;;;;;;4996983;28;20255;-79
2022/01/04 04:44:14;;;;;;;2.40;1.20;;;9.30;55.70;;;;;;4996863;28;20247;-79
2022/01/04 04:46:41;;;;;;;3.35;1.55;;;9.20;55.90;;;;;;4996988;28;20200;-79
2022/01/04 04:49:09;;;;;;;3.15;1.63;;;9.10;56.10;;;;;;4996676;28;20221;-79
2022/01/04 04:51:36;;;;;;;3.28;1.73;;;9.10;56.00;;;;;;4996514;28;20200;-79
2022/01/04 04:54:05;;;;;;;3.38;1.60;;;9.20;55.90;;;;;;4996999;28;20209;-79
2022/01/04 04:56:34;;;;;;;2.60;1.52;;;9.20;55.50;;;;;;4996700;28;20196;-79
2022/01/04 04:59:01;;;;;;;2.67;1.55;;;9.20;55.10;;;;;;4996742;28;20197;-79
2022/01/04 05:01:31;;;;;;;2.75;1.58;;;9.20;55.20;;;;;;4996622;28;20255;-79
2022/01/04 05:03:58;;;;;;;2.30;1.30;;;9.30;55.40;;;;;;4996650;28;20652;-79
2022/01/04 05:06:30;;;;;;;2.92;1.52;;;9.30;54.90;;;;;;4996587;28;20240;-78
2022/01/04 05:08:57;;;;;;;2.65;1.45;;;9.40;55.00;;;;;;4996622;28;20217;-79
2022/01/04 05:11:26;;;;;;;2.38;1.50;;;9.50;55.00;;;;;;4996608;28;20621;-79
2022/01/04 05:13:53;;;;;;;1.95;1.00;;;9.50;55.30;;;;;;4996361;28;20280;-79
2022/01/04 05:16:21;;;;;;;4.28;1.42;;;9.50;56.00;;;;;;4996535;28;20267;-79
2022/01/04 05:18:48;;;;;;;2.42;1.33;;;9.60;56.50;;;;;;4995839;28;20232;-79
2022/01/04 05:21:20;;;;;;;2.42;1.70;;;9.60;57.10;;;;;;4996119;28;20193;-79
2022/01/04 05:23:54;;;;;;;2.58;1.45;;;9.60;58.10;;;;;;4996141;28;20193;-79
2022/01/04 05:26:21;;;;;;;3.20;2.00;;;9.60;58.30;;;;;;4996492;28;20292;-79
2022/01/04 05:28:55;;;;;;;2.88;1.52;;;9.60;58.40;;;;;;4995809;28;20683;-79
2022/01/04 05:31:22;;;;;;;4.15;1.95;;;9.50;58.70;;;;;;4996261;28;20229;-79
2022/01/04 05:33:55;;;;;;;3.15;1.60;;;9.60;58.80;;;;;;4995872;28;20228;-79
2022/01/04 05:36:22;;;;;;;2.83;1.33;;;9.60;59.00;;;;;;4996219;28;20197;-79
2022/01/04 05:38:54;;;;;;;3.42;1.80;;;9.60;59.40;;;;;;4995966;28;20648;-79
2022/01/04 05:41:27;;;;;;;3.25;1.58;;;9.60;59.50;;;;;;4995937;28;20193;-79
2022/01/04 05:43:55;;;;;;;3.67;1.90;;;9.60;59.80;;;;;;4995747;28;20197;-79
2022/01/04 05:46:22;;;;;;;3.80;1.80;;;9.60;60.20;;;;;;4995800;28;20201;-79
2022/01/04 05:48:50;;;;;;;4.35;2.20;;;9.60;60.40;;;;;;4995436;28;20225;-79
2022/01/04 05:51:17;;;;;;;4.20;2.47;;;9.60;60.60;;;;;;4995565;28;20562;-79
2022/01/04 05:53:48;;;;;;;4.55;2.50;;;9.60;60.90;;;;;;4995432;28;20247;-79
2022/01/04 05:56:15;;;;;;;5.70;2.67;;;9.60;61.70;;;;;;4995715;28;20232;-79
2022/01/04 05:58:44;;;;;;;5.00;2.60;;;9.60;62.10;;;;;;4995507;28;20205;-79
2022/01/04 06:01:13;;;;;;;3.92;2.35;;;9.60;61.80;;;;;;4995596;28;20251;-79
2022/01/04 06:03:40;;;;;;;3.10;2.15;;;9.60;61.40;;;;;;4992897;28;20185;-78
2022/01/04 06:06:08;;;;;;;3.72;2.30;;;9.60;61.50;;;;;;4983463;28;20217;-79
2022/01/04 06:08:38;;;;;;;3.92;2.25;;;9.60;61.70;;;;;;4993938;28;20213;-81
2022/01/04 06:11:08;;;;;;;2.95;1.80;;;9.60;61.30;;;;;;4995169;28;20254;-78
2022/01/04 06:16:21;;;;;;;4.00;2.47;;;9.60;61.30;;;;;;4988425;28;20299;-81
2022/01/04 06:19:00;;;;;;;3.08;1.90;;;9.70;62.00;;;;;;4994274;28;20237;-79
2022/01/04 06:21:27;;;;;;;2.50;1.70;;;9.70;62.50;;;;;;4994631;28;20204;-80
2022/01/04 06:23:57;;;;;;;3.25;1.92;;;9.70;63.00;;;;;;4993974;28;20272;-80
2022/01/04 06:26:25;;;;;;;4.35;2.53;;;9.70;63.20;;;;;;4994176;28;20235;-79
2022/01/04 06:28:52;;;;;;;3.85;2.33;;;9.70;63.30;;;;;;4993368;28;20264;-80
2022/01/04 06:31:21;;;;;;;3.63;2.30;;;9.70;63.20;;;;;;4994242;28;20185;-79
2022/01/04 06:33:48;;;;;;;3.85;2.17;;;9.70;63.30;;;;;;4993766;28;20643;-79
2022/01/04 06:36:16;;;;;;;3.88;1.75;;;9.60;64.20;;;;;;4993869;28;20199;-79
2022/01/04 06:38:43;;;;;;;6.07;1.85;;;9.50;65.00;;;;;;4994222;28;20224;-78
2022/01/04 06:41:16;;;;;;;4.10;1.80;;;9.50;65.10;;;;;;4985111;28;20204;-79
2022/01/04 06:43:49;;;;;;;2.72;2.00;;;9.50;65.70;;;;;;4987395;28;20239;-78
2022/01/04 06:46:17;;;;;;;7.22;2.75;;;9.50;65.70;;;;;;4991533;28;20189;-78
2022/01/04 06:48:46;;;;;;;3.75;2.65;;;9.50;65.60;;;;;;4991851;28;20223;-78
2022/01/04 06:51:13;;;;;;;4.10;2.25;;;9.50;65.80;;;;;;4990993;28;20184;-78
2022/01/04 06:53:45;;;;;;;4.97;3.30;;;9.40;66.00;;;;;;4975150;28;20186;-78
2022/01/04 06:56:12;;;;;;;12.52;7.30;;;9.40;66.20;;;;;;4974467;28;20205;-79
2022/01/04 06:58:40;;;;;;;17.42;12.07;;;9.40;66.90;;;;;;4978799;28;20197;-78
2022/01/04 07:01:23;;;;;;;13.48;10.38;;;9.30;67.10;;;;;;4987387;28;20271;-79
2022/01/04 07:03:51;;;;;;;5.75;4.80;;;9.20;67.90;;;;;;4977396;28;20208;-79
2022/01/04 07:06:19;;;;;;;5.05;2.88;;;9.20;67.30;;;;;;4991455;28;20231;-79
2022/01/04 07:08:49;;;;;;;5.80;3.10;;;9.10;68.30;;;;;;4981461;28;20562;-78
2022/01/04 07:11:17;;;;;;;4.28;2.20;;;9.10;68.30;;;;;;4980117;28;20189;-79
2022/01/04 07:13:54;;;;;;;3.38;2.85;;;9.10;68.20;;;;;;4979721;28;20699;-79
2022/01/04 07:16:21;;;;;;;7.55;3.55;;;9.10;68.00;;;;;;4978207;28;20181;-80
2022/01/04 07:18:54;;;;;;;5.15;3.00;;;9.10;68.40;;;;;;4976762;28;20687;-79
2022/01/04 07:21:25;;;;;;;4.45;2.60;;;9.00;69.50;;;;;;4974869;28;20190;-78
2022/01/04 07:23:54;;;;;;;3.30;1.73;;;9.10;70.70;;;;;;4986555;28;20221;-79
2022/01/04 07:26:22;;;;;;;3.90;2.03;;;9.00;72.00;;;;;;4987154;28;20288;-79
2022/01/04 07:28:50;;;;;;;13.18;6.05;;;8.90;73.00;;;;;;4979030;28;20185;-79
2022/01/04 07:31:18;;;;;;;69.60;33.42;;;8.90;73.30;;;;;;4985940;28;20189;-77
2022/01/04 07:33:48;;;;;;;47.78;21.92;;;8.90;74.40;;;;;;4990813;28;20192;-80
2022/01/04 07:36:16;;;;;;;65.45;32.58;;;8.80;76.00;;;;;;4993206;28;20193;-80
2022/01/04 07:38:44;;;;;;;37.30;20.45;;;8.80;77.50;;;;;;4993926;28;20591;-79
2022/01/04 07:41:12;;;;;;;29.15;17.10;;;8.80;78.00;;;;;;4993731;28;20245;-79
2022/01/04 07:43:39;;;;;;;53.83;30.42;;;8.90;77.90;;;;;;4993542;28;20624;-79
2022/01/04 07:46:06;;;;;;;43.63;23.23;;;9.00;78.30;;;;;;4993856;28;20243;-79
2022/01/04 07:48:33;;;;;;;19.63;12.45;;;9.10;79.80;;;;;;4993844;28;20682;-77
2022/01/04 07:51:01;;;;;;;26.73;15.85;;;9.20;80.30;;;;;;4993604;28;20220;-79
2022/01/04 07:53:28;;;;;;;32.58;18.30;;;9.10;81.50;;;;;;4993857;28;20274;-79
2022/01/04 07:55:56;;;;;;;39.47;18.80;;;9.10;84.10;;;;;;4993528;28;20270;-79
2022/01/04 07:58:34;;;;;;;70.65;36.33;;;9.30;85.70;;;;;;4993376;28;20251;-79
2022/01/04 08:01:02;;;;;;;47.40;26.20;;;9.40;86.50;;;;;;4993746;28;20199;-79
2022/01/04 08:03:29;;;;;;;48.22;27.02;;;9.50;86.70;;;;;;4993281;28;20197;-79
2022/01/04 08:05:56;;;;;;;72.78;43.03;;;9.60;87.50;;;;;;4993353;28;20901;-79
2022/01/04 08:08:23;;;;;;;66.50;46.28;;;9.80;87.30;;;;;;4994281;28;20243;-79
2022/01/04 08:10:51;;;;;;;59.97;38.90;;;9.80;87.50;;;;;;4997599;28;20279;-79
2022/01/04 08:13:20;;;;;;;42.35;29.85;;;9.90;87.30;;;;;;4997352;28;20224;-79
2022/01/04 08:15:47;;;;;;;44.22;27.65;;;10.00;86.70;;;;;;4997377;28;20256;-79
2022/01/04 08:18:14;;;;;;;49.85;29.05;;;10.10;86.00;;;;;;4996997;28;20232;-79
2022/01/04 08:20:41;;;;;;;22.58;15.63;;;10.20;86.40;;;;;;4997147;28;20264;-79
2022/01/04 08:23:09;;;;;;;15.10;10.15;;;10.20;86.10;;;;;;4997502;28;20617;-79
2022/01/04 08:25:37;;;;;;;9.23;5.80;;;10.20;86.20;;;;;;4997122;28;20219;-75
2022/01/04 08:28:05;;;;;;;5.82;3.95;;;10.30;85.90;;;;;;4997363;28;20512;-79
2022/01/04 08:30:34;;;;;;;4.38;2.53;;;10.30;84.60;;;;;;4997126;28;20853;-79
2022/01/04 08:33:01;;;;;;;3.05;1.70;;;10.20;81.50;;;;;;4996991;28;20212;-79
2022/01/04 08:35:28;;;;;;;3.25;1.70;;;10.30;80.10;;;;;;4997274;28;20524;-80
2022/01/04 08:37:56;;;;;;;7.47;4.18;;;10.20;80.10;;;;;;4997050;28;20212;-79
2022/01/04 08:40:23;;;;;;;12.10;8.02;;;10.20;79.90;;;;;;4997141;28;20189;-79
2022/01/04 08:42:50;;;;;;;8.80;5.78;;;10.10;81.20;;;;;;4997021;28;20256;-79
2022/01/04 08:45:20;;;;;;;3.28;1.90;;;10.10;80.80;;;;;;4997220;28;20244;-79
2022/01/04 08:47:51;;;;;;;8.48;5.88;;;10.20;78.20;;;;;;4996935;28;20285;-79
2022/01/04 08:50:19;;;;;;;4.82;2.63;;;10.10;75.50;;;;;;4996573;28;20224;-79
2022/01/04 08:52:49;;;;;;;6.65;3.92;;;10.10;75.60;;;;;;4996673;28;20204;-79
2022/01/04 08:55:16;;;;;;;6.10;3.58;;;10.20;75.10;;;;;;4996836;28;20196;-80
2022/01/04 08:57:43;;;;;;;7.72;2.80;;;10.20;74.20;;;;;;4996642;28;20236;-79
2022/01/04 09:00:13;;;;;;;4.88;2.22;;;10.30;75.20;;;;;;4996670;28;20196;-78
2022/01/04 09:02:40;;;;;;;4.68;2.15;;;10.30;74.70;;;;;;4996597;28;20252;-79
2022/01/04 09:05:09;;;;;;;6.00;3.20;;;10.30;74.30;;;;;;4996783;28;20204;-79
2022/01/04 09:07:37;;;;;;;3.63;1.90;;;10.30;73.60;;;;;;4996528;28;20209;-79
2022/01/04 09:10:05;;;;;;;6.53;3.45;;;10.30;72.90;;;;;;4996457;28;20286;-80
2022/01/04 09:12:42;;;;;;;7.45;6.50;;;10.40;72.40;;;;;;4996528;28;20247;-80
2022/01/04 09:15:30;;;;;;;5.32;4.65;;;10.30;72.80;;;;;;4996646;28;20193;-80
2022/01/04 09:20:46;;;;;;;4.03;2.95;;;10.30;73.80;;;;;;4995833;28;20213;-79
2022/01/04 09:23:15;;;;;;;3.78;2.45;;;10.30;74.10;;;;;;4996316;28;20211;-79
2022/01/04 09:25:42;;;;;;;3.85;2.40;;;10.40;74.60;;;;;;4996064;28;20189;-79
2022/01/04 09:28:09;;;;;;;4.13;2.10;;;10.50;74.50;;;;;;4996246;28;20212;-80
2022/01/04 09:30:36;;;;;;;2.13;1.48;;;10.50;74.40;;;;;;4996333;28;20224;-79
2022/01/04 09:33:05;;;;;;;3.55;1.85;;;10.60;74.00;;;;;;4996290;28;20228;-79
2022/01/04 09:35:32;;;;;;;3.75;1.88;;;10.60;73.90;;;;;;4996384;28;20547;-80
2022/01/04 09:38:01;;;;;;;4.32;2.40;;;10.70;73.30;;;;;;4996256;28;20189;-80
2022/01/04 09:40:28;;;;;;;3.90;2.72;;;10.80;73.30;;;;;;4996282;28;20239;-80
2022/01/04 09:42:55;;;;;;;7.20;5.65;;;10.80;73.60;;;;;;4996228;28;20216;-80
2022/01/04 09:45:22;;;;;;;6.70;4.80;;;10.90;74.10;;;;;;4996197;28;20225;-80
2022/01/04 09:47:49;;;;;;;6.43;3.17;;;11.00;73.30;;;;;;4995702;28;20228;-79
2022/01/04 09:50:16;;;;;;;4.55;3.22;;;11.20;72.90;;;;;;4995588;28;20318;-80
2022/01/04 09:52:46;;;;;;;6.88;4.75;;;11.10;72.60;;;;;;4995858;28;20236;-79
2022/01/04 09:55:15;;;;;;;3.28;2.17;;;11.10;72.90;;;;;;4996050;28;20196;-80
2022/01/04 09:57:43;;;;;;;3.63;3.28;;;11.10;72.80;;;;;;4995916;28;20512;-80
2022/01/04 10:00:14;;;;;;;7.35;4.38;;;11.20;73.20;;;;;;4995853;28;20605;-80
2022/01/04 10:02:42;;;;;;;5.15;3.30;;;11.20;73.10;;;;;;4995809;28;20197;-80
2022/01/04 10:05:14;;;;;;;4.28;2.95;;;11.30;73.30;;;;;;4995560;28;20299;-80
2022/01/04 10:07:41;;;;;;;8.45;4.32;;;11.40;73.30;;;;;;4995311;28;20636;-80
2022/01/04 10:10:11;;;;;;;10.20;6.82;;;11.40;73.40;;;;;;4995370;28;20220;-80
2022/01/04 10:12:59;;;;;;;7.90;5.28;;;11.50;73.50;;;;;;4995601;28;20222;-80
2022/01/04 10:15:35;;;;;;;7.70;5.07;;;11.60;73.60;;;;;;4995764;28;20225;-80
2022/01/04 10:18:05;;;;;;;9.95;5.15;;;11.80;73.80;;;;;;4995305;28;20275;-80
2022/01/04 10:20:32;;;;;;;26.83;16.25;;;11.90;74.10;;;;;;4995623;28;20200;-80
2022/01/04 10:23:10;;;;;;;22.40;12.23;;;12.00;74.20;;;;;;4995349;28;20193;-80
2022/01/04 10:25:38;;;;;;;8.70;5.82;;;12.10;74.20;;;;;;4995332;28;20287;-79
2022/01/04 10:28:06;;;;;;;14.63;8.20;;;12.30;74.30;;;;;;4995337;28;20696;-80
2022/01/04 10:30:36;;;;;;;14.90;7.20;;;12.30;74.20;;;;;;4994656;28;20678;-81
2022/01/04 10:33:07;;;;;;;12.15;8.38;;;12.50;74.20;;;;;;4994877;28;20750;-80
2022/01/04 10:35:37;;;;;;;5.97;4.82;;;12.60;74.00;;;;;;4994971;28;20189;-80
2022/01/04 10:38:14;;;;;;;5.72;3.40;;;12.70;73.90;;;;;;4995196;28;20228;-81
2022/01/04 10:40:42;;;;;;;3.75;2.55;;;12.80;73.40;;;;;;4995132;28;20701;-79
2022/01/04 10:43:13;;;;;;;5.37;3.07;;;12.90;72.90;;;;;;4994918;28;20239;-80
2022/01/04 10:45:42;;;;;;;10.23;5.90;;;13.10;72.90;;;;;;4995053;28;20476;-80
2022/01/04 10:48:15;;;;;;;8.00;4.63;;;13.20;72.20;;;;;;4994772;28;20480;-80
2022/01/04 10:50:44;;;;;;;5.17;2.50;;;13.40;71.30;;;;;;4994498;28;20488;-81
2022/01/04 10:53:17;;;;;;;2.73;1.43;;;13.50;71.10;;;;;;4994880;28;20440;-81
2022/01/04 10:55:46;;;;;;;6.20;2.33;;;13.60;70.70;;;;;;4994798;28;20467;-76
2022/01/04 10:58:23;;;;;;;7.90;4.60;;;13.80;69.70;;;;;;4994602;28;20448;-81
2022/01/04 11:00:53;;;;;;;3.90;2.83;;;13.90;69.20;;;;;;4994706;28;20953;-81
2022/01/04 11:03:25;;;;;;;2.87;2.20;;;14.10;69.20;;;;;;4994491;28;20435;-81
2022/01/04 11:06:04;;;;;;;5.73;3.37;;;14.10;68.40;;;;;;4994665;28;20495;-81
2022/01/04 11:08:31;;;;;;;4.30;2.30;;;14.20;68.40;;;;;;4994586;28;21075;-81
2022/01/04 11:10:59;;;;;;;3.50;2.10;;;14.20;67.70;;;;;;4994411;28;20523;-81
2022/01/04 11:13:28;;;;;;;3.57;2.03;;;14.30;67.40;;;;;;4994688;28;20444;-81
2022/01/04 11:15:55;;;;;;;4.27;2.50;;;14.30;66.90;;;;;;4994301;28;20490;-81
2022/01/04 11:18:23;;;;;;;4.27;3.03;;;14.40;67.60;;;;;;4993886;28;21060;-81
2022/01/04 11:20:51;;;;;;;6.57;4.00;;;14.40;68.30;;;;;;4994588;28;20551;-81
2022/01/04 11:23:25;;;;;;;5.60;3.67;;;14.50;67.50;;;;;;4994307;28;20475;-81
2022/01/04 11:25:53;;;;;;;4.60;2.63;;;14.50;67.70;;;;;;4994031;28;20440;-81
2022/01/04 11:28:22;;;;;;;5.50;4.17;;;14.60;68.50;;;;;;4994270;28;20451;-82
2022/01/04 11:31:22;;;;;;;4.10;2.70;;;14.70;68.20;;;;;;4994229;28;20487;-81
2022/01/04 11:33:57;;;;;;;6.47;3.77;;;15.00;67.60;;;;;;4993996;28;20942;-81
2022/01/04 11:36:25;;;;;;;6.13;3.77;;;15.10;67.50;;;;;;4994228;28;20510;-81
2022/01/04 11:38:52;;;;;;;10.60;4.70;;;15.10;66.20;;;;;;4993818;28;20466;-81
2022/01/04 11:41:26;;;;;;;8.47;4.80;;;15.10;65.40;;;;;;4994021;28;20490;-81
2022/01/04 11:43:53;;;;;;;2.80;1.93;;;15.20;66.00;;;;;;4993847;28;20898;-81
2022/01/04 11:46:36;;;;;;;2.33;1.57;;;15.50;64.50;;;;;;4993814;28;20491;-81
2022/01/04 11:49:12;;;;;;;3.33;1.30;;;15.90;65.50;;;;;;4993912;28;20530;-82
2022/01/04 11:51:44;;;;;;;2.43;1.60;;;16.30;63.70;;;;;;4993815;28;20494;-82
2022/01/04 11:54:20;;;;;;;2.37;1.43;;;16.70;63.40;;;;;;4993836;28;20468;-82
2022/01/04 11:56:48;;;;;;;3.00;1.47;;;17.20;58.20;;;;;;4993818;28;20510;-82
2022/01/04 11:59:23;;;;;;;3.17;2.00;;;17.90;57.70;;;;;;4993731;28;20832;-82
2022/01/04 12:01:53;;;;;;;2.20;1.10;;;18.60;57.10;;;;;;4993717;28;20439;-82
2022/01/04 12:04:47;;;;;;;1.83;0.83;;;19.20;53.90;;;;;;4993564;28;20507;-83
2022/01/04 12:07:51;;;;;;;1.90;1.00;;;19.80;51.70;;;;;;4991482;28;20556;-82
2022/01/04 12:10:40;;;;;;;2.37;1.30;;;20.40;51.00;;;;;;4993589;28;20446;-83
2022/01/04 12:13:16;;;;;;;1.73;0.90;;;21.00;48.50;;;;;;4993658;28;20783;-82
2022/01/04 12:15:52;;;;;;;3.03;1.27;;;21.30;46.70;;;;;;4993784;28;20442;-83
2022/01/04 12:19:01;;;;;;;3.20;0.70;;;21.60;45.80;;;;;;4993257;28;20471;-83
2022/01/04 12:21:42;;;;;;;1.60;0.70;;;21.90;43.00;;;;;;4993339;28;20475;-83
2022/01/04 12:24:11;;;;;;;1.50;0.70;;;22.10;41.10;;;;;;4993730;28;20494;-82
2022/01/04 12:26:39;;;;;;;1.67;0.60;;;22.00;41.90;;;;;;4993461;28;20432;-82
2022/01/04 12:29:24;;;;;;;1.50;0.60;;;21.90;40.70;;;;;;4993492;28;20494;-82
2022/01/04 12:32:02;;;;;;;1.60;0.60;;;21.80;40.60;;;;;;4993460;28;21006;-82
2022/01/04 12:34:40;;;;;;;3.20;0.70;;;21.60;40.10;;;;;;4993575;28;20519;-83
2022/01/04 12:37:18;;;;;;;1.70;0.70;;;21.40;39.80;;;;;;4993487;28;20476;-82
2022/01/04 12:39:48;;;;;;;1.80;0.60;;;21.30;39.50;;;;;;4993522;28;20436;-82
2022/01/04 12:42:16;;;;;;;2.20;1.00;;;21.30;39.60;;;;;;4993341;28;20806;-82
2022/01/04 12:44:49;;;;;;;2.83;1.60;;;21.30;39.60;;;;;;4993292;28;20761;-82
2022/01/04 12:47:18;;;;;;;3.07;1.67;;;21.40;39.10;;;;;;4993430;28;20440;-82
2022/01/04 12:49:45;;;;;;;2.60;1.27;;;21.30;39.10;;;;;;4993317;28;20444;-81
2022/01/04 12:52:17;;;;;;;1.70;0.83;;;21.30;38.90;;;;;;4993223;28;20824;-82
2022/01/04 12:54:44;;;;;;;1.90;0.87;;;21.30;38.90;;;;;;4994957;28;20448;-82
2022/01/04 12:57:14;;;;;;;1.70;0.80;;;21.20;38.80;;;;;;4997004;28;20866;-82
2022/01/04 12:59:42;;;;;;;3.10;1.50;;;21.10;39.30;;;;;;4996818;28;20436;-82
2022/01/04 13:02:15;;;;;;;2.40;1.40;;;21.00;39.30;;;;;;4996760;28;20448;-81
2022/01/04 13:04:45;;;;;;;1.70;0.90;;;20.90;39.80;;;;;;4996923;28;20523;-82
2022/01/04 13:07:20;;;;;;;1.87;0.70;;;20.80;39.70;;;;;;4997037;28;20848;-82
2022/01/04 13:09:52;;;;;;;1.73;0.70;;;20.70;40.00;;;;;;4996814;28;20435;-82
2022/01/04 13:12:28;;;;;;;1.50;0.70;;;20.70;40.20;;;;;;4996491;28;20534;-82